createdAt,value
2023-05-22T00:02:10.116Z,79.85
2023-05-22T00:04:37.945Z,80.51
2023-05-22T00:07:07.971Z,80.29
2023-05-22T00:09:35.806Z,80.59
2023-05-22T00:12:03.654Z,80.33
2023-05-22T00:14:31.587Z,80.26
2023-05-22T00:17:00.305Z,80.63
2023-05-22T00:19:30.502Z,81.14
2023-05-22T00:21:58.516Z,80.39
2023-05-22T00:24:26.203Z,81.99
2023-05-22T00:26:53.939Z,80.99
2023-05-22T00:29:21.635Z,80.87
2023-05-22T00:31:50.569Z,80.49
2023-05-22T00:34:19.415Z,80.95
2023-05-22T00:36:47.158Z,80.92
2023-05-22T00:39:14.854Z,81.11
2023-05-22T00:41:42.807Z,81.34
2023-05-22T00:44:11.809Z,82.26
2023-05-22T00:46:39.636Z,82.72
2023-05-22T00:49:07.360Z,82.53
2023-05-22T00:51:35.263Z,82.85
2023-05-22T00:54:04.061Z,83.28
2023-05-22T00:56:32.269Z,83.06
2023-05-22T00:59:00.430Z,82.72
2023-05-22T01:01:33.604Z,82.71
2023-05-22T01:04:02.175Z,82.46
2023-05-22T01:06:32.314Z,82.01
2023-05-22T01:09:00.614Z,82.67
2023-05-22T01:11:37.588Z,82.51
2023-05-22T01:14:23.522Z,82.66
2023-05-22T01:17:09.365Z,82.89
2023-05-22T01:19:47.601Z,83.05
2023-05-22T01:22:50.874Z,83.14
2023-05-22T01:25:36.080Z,83.56
2023-05-22T01:28:23.033Z,82.68
2023-05-22T01:30:56.731Z,82.82
2023-05-22T01:33:26.140Z,82.52
2023-05-22T01:35:57.640Z,82.37
2023-05-22T01:38:25.772Z,81.89
2023-05-22T01:40:55.287Z,82.28
2023-05-22T01:43:24.063Z,82.23
2023-05-22T01:45:51.838Z,82.33
2023-05-22T01:48:19.604Z,82.62
2023-05-22T01:50:51.476Z,82.63
2023-05-22T01:53:30.659Z,82.74
2023-05-22T01:56:00.884Z,82.90
2023-05-22T01:58:40.078Z,82.38
2023-05-22T02:01:10.432Z,83.62
2023-05-22T02:03:40.596Z,83.00
2023-05-22T02:06:12.516Z,83.00
2023-05-22T02:08:42.287Z,83.31
2023-05-22T02:11:14.178Z,82.93
2023-05-22T02:13:42.947Z,83.09
2023-05-22T02:16:12.456Z,83.18
2023-05-22T02:18:41.881Z,83.33
2023-05-22T02:21:09.768Z,83.17
2023-05-22T02:23:37.987Z,83.35
2023-05-22T02:26:06.060Z,82.91
2023-05-22T02:28:34.248Z,83.21
2023-05-22T02:31:03.834Z,83.08
2023-05-22T02:33:31.622Z,83.43
2023-05-22T02:35:59.281Z,83.50
2023-05-22T02:38:27.019Z,83.93
2023-05-22T02:40:54.821Z,83.53
2023-05-22T02:43:22.664Z,84.58
2023-05-22T02:45:50.877Z,83.99
2023-05-22T02:48:18.677Z,83.81
2023-05-22T02:50:48.764Z,83.95
2023-05-22T02:53:17.274Z,83.96
2023-05-22T02:55:46.039Z,83.96
2023-05-22T02:58:14.674Z,84.02
2023-05-22T03:00:43.319Z,83.80
2023-05-22T03:03:11.780Z,83.92
2023-05-22T03:05:40.175Z,84.42
2023-05-22T03:08:09.065Z,84.60
2023-05-22T03:10:38.688Z,84.80
2023-05-22T03:13:06.600Z,85.18
2023-05-22T03:15:34.626Z,84.27
2023-05-22T03:18:09.184Z,85.55
2023-05-22T03:20:37.405Z,84.67
2023-05-22T03:23:05.419Z,84.84
2023-05-22T03:25:33.363Z,85.46
2023-05-22T03:28:01.088Z,85.38
2023-05-22T03:30:29.756Z,85.76
2023-05-22T03:33:08.183Z,85.04
2023-05-22T03:35:36.532Z,84.63
2023-05-22T03:38:04.276Z,84.99
2023-05-22T03:40:32.340Z,84.86
2023-05-22T03:43:00.516Z,85.19
2023-05-22T03:45:28.760Z,84.83
2023-05-22T03:47:56.688Z,84.66
2023-05-22T03:50:24.929Z,85.54
2023-05-22T03:52:52.577Z,85.35
2023-05-22T03:55:20.354Z,85.77
2023-05-22T03:57:48.854Z,85.75
2023-05-22T04:00:19.850Z,85.79
2023-05-22T04:02:48.142Z,85.80
2023-05-22T04:05:16.255Z,85.08
2023-05-22T04:07:44.553Z,85.18
2023-05-22T04:10:12.528Z,85.29
2023-05-22T04:12:40.281Z,85.17
2023-05-22T04:15:09.508Z,85.18
2023-05-22T04:17:41.459Z,84.90
2023-05-22T04:20:11.295Z,84.72
2023-05-22T04:22:41.252Z,84.36
2023-05-22T04:25:10.546Z,83.09
2023-05-22T04:27:38.228Z,83.75
2023-05-22T04:30:09.107Z,84.25
2023-05-22T04:32:37.115Z,84.44
2023-05-22T04:35:05.471Z,83.48
2023-05-22T04:37:33.364Z,82.57
2023-05-22T04:40:10.303Z,81.09
2023-05-22T04:42:38.754Z,81.13
2023-05-22T04:45:07.130Z,79.95
2023-05-22T04:47:35.071Z,79.82
2023-05-22T04:50:07.313Z,79.29
2023-05-22T04:52:36.176Z,79.36
2023-05-22T04:55:05.980Z,79.35
2023-05-22T04:57:34.041Z,78.21
2023-05-22T05:00:02.012Z,77.22
2023-05-22T05:02:32.979Z,76.95
2023-05-22T05:05:01.144Z,76.99
2023-05-22T05:07:29.904Z,76.35
2023-05-22T05:09:58.118Z,75.92
2023-05-22T05:12:26.961Z,75.64
2023-05-22T05:14:54.991Z,75.42
2023-05-22T05:17:22.769Z,74.72
2023-05-22T05:19:50.577Z,74.82
2023-05-22T05:22:18.311Z,74.05
2023-05-22T05:24:45.972Z,74.47
2023-05-22T05:27:14.045Z,74.21
2023-05-22T05:29:43.022Z,73.26
2023-05-22T05:32:18.795Z,71.60
2023-05-22T05:34:50.110Z,70.58
2023-05-22T05:37:24.288Z,70.69
2023-05-22T05:39:52.888Z,69.30
2023-05-22T05:42:21.210Z,70.18
2023-05-22T05:44:50.484Z,70.55
2023-05-22T05:47:18.964Z,70.34
2023-05-22T05:49:46.765Z,69.97
2023-05-22T05:52:15.974Z,69.07
2023-05-22T05:54:47.340Z,69.26
2023-05-22T05:57:17.390Z,69.38
2023-05-22T05:59:45.084Z,68.57
2023-05-22T06:02:26.466Z,67.40
2023-05-22T06:04:56.109Z,67.03
2023-05-22T06:07:24.316Z,68.02
2023-05-22T06:09:54.005Z,67.75
2023-05-22T06:12:48.040Z,68.59
2023-05-22T06:15:16.085Z,68.47
2023-05-22T06:17:44.179Z,67.75
2023-05-22T06:20:14.334Z,66.45
2023-05-22T06:22:42.653Z,66.57
2023-05-22T06:25:10.590Z,65.97
2023-05-22T06:27:38.487Z,64.79
2023-05-22T06:30:07.126Z,65.13
2023-05-22T06:32:39.258Z,65.24
2023-05-22T06:35:07.955Z,64.16
2023-05-22T06:37:36.773Z,62.65
2023-05-22T06:40:07.364Z,62.92
2023-05-22T06:42:43.758Z,60.54
2023-05-22T06:45:30.074Z,60.29
2023-05-22T06:48:21.530Z,60.73
2023-05-22T06:51:00.652Z,59.51
2023-05-22T06:53:28.334Z,59.45
2023-05-22T06:55:57.225Z,58.01
2023-05-22T06:58:33.950Z,58.05
2023-05-22T07:01:04.068Z,58.18
2023-05-22T07:03:38.221Z,56.32
2023-05-22T07:06:38.679Z,56.97
2023-05-22T07:09:07.230Z,55.98
2023-05-22T07:11:36.026Z,54.88
2023-05-22T07:14:06.552Z,55.01
2023-05-22T07:16:34.739Z,53.62
2023-05-22T07:19:03.514Z,52.30
2023-05-22T07:21:32.275Z,50.91
2023-05-22T07:24:00.168Z,50.66
2023-05-22T07:26:28.553Z,50.54
2023-05-22T07:29:03.449Z,50.74
2023-05-22T07:31:32.087Z,48.82
2023-05-22T07:34:00.013Z,50.14
2023-05-22T07:36:28.227Z,48.83
2023-05-22T07:38:55.972Z,49.19
2023-05-22T07:41:25.670Z,50.23
2023-05-22T07:43:53.552Z,50.87
2023-05-22T07:46:26.095Z,48.74
2023-05-22T07:49:10.436Z,48.54
2023-05-22T07:51:41.077Z,49.18
2023-05-22T07:54:10.184Z,50.89
2023-05-22T07:56:45.654Z,49.13
2023-05-22T07:59:13.627Z,48.09
2023-05-22T08:01:43.334Z,48.09
2023-05-22T08:04:11.252Z,46.54
2023-05-22T08:06:39.861Z,45.10
2023-05-22T08:09:07.648Z,44.63
2023-05-22T08:11:39.622Z,42.51
2023-05-22T08:14:08.209Z,42.76
2023-05-22T08:16:36.036Z,41.62
2023-05-22T08:19:05.386Z,41.25
2023-05-22T08:21:34.806Z,40.44
2023-05-22T08:24:02.572Z,39.76
2023-05-22T08:26:32.102Z,41.77
2023-05-22T08:29:00.937Z,40.10
2023-05-22T08:31:29.567Z,40.60
2023-05-22T08:34:02.410Z,39.64
2023-05-22T08:36:34.090Z,39.37
2023-05-22T08:39:03.744Z,38.48
2023-05-22T08:41:31.605Z,38.92
2023-05-22T08:43:59.704Z,39.10
2023-05-22T08:46:30.541Z,39.16
2023-05-22T08:48:58.954Z,38.15
2023-05-22T08:51:33.026Z,38.50
2023-05-22T08:54:04.956Z,38.09
2023-05-22T08:56:35.207Z,37.09
2023-05-22T08:59:06.718Z,38.08
2023-05-22T09:01:35.083Z,38.46
2023-05-22T09:04:03.763Z,37.38
2023-05-22T09:06:31.949Z,35.17
2023-05-22T09:09:00.114Z,37.99
2023-05-22T09:11:28.492Z,36.37
2023-05-22T09:14:10.135Z,37.62
2023-05-22T09:16:54.974Z,35.97
2023-05-22T09:19:22.859Z,36.82
2023-05-22T09:21:51.622Z,36.92
2023-05-22T09:24:19.460Z,34.36
2023-05-22T09:26:48.383Z,32.94
2023-05-22T09:29:16.170Z,32.84
2023-05-22T09:31:44.816Z,34.69
2023-05-22T09:34:17.760Z,33.15
2023-05-22T09:36:45.893Z,32.11
2023-05-22T09:39:13.812Z,32.59
2023-05-22T09:41:41.566Z,34.70
2023-05-22T09:44:14.155Z,33.72
2023-05-22T09:46:46.572Z,33.69
2023-05-22T09:49:16.392Z,33.27
2023-05-22T09:51:48.388Z,32.39
2023-05-22T09:54:17.609Z,31.74
2023-05-22T09:56:52.432Z,32.23
2023-05-22T09:59:26.792Z,32.83
2023-05-22T10:01:54.988Z,32.05
2023-05-22T10:04:23.746Z,31.79
2023-05-22T10:06:53.789Z,30.56
2023-05-22T10:09:26.024Z,32.63
2023-05-22T10:11:58.700Z,34.52
2023-05-22T10:14:28.741Z,33.57
2023-05-22T10:17:02.063Z,33.14
2023-05-22T10:19:32.812Z,34.37
2023-05-22T10:22:02.055Z,32.39
2023-05-22T10:24:30.050Z,30.44
2023-05-22T10:26:58.013Z,30.34
2023-05-22T10:29:35.956Z,30.36
2023-05-22T10:32:19.181Z,31.29
2023-05-22T10:34:58.040Z,31.12
2023-05-22T10:37:28.857Z,32.08
2023-05-22T10:40:07.575Z,32.82
2023-05-22T10:42:38.181Z,32.40
2023-05-22T10:45:10.842Z,32.58
2023-05-22T10:47:38.664Z,32.16
2023-05-22T10:50:12.140Z,32.20
2023-05-22T10:52:40.467Z,32.02
2023-05-22T10:55:09.661Z,32.14
2023-05-22T10:57:39.067Z,32.06
2023-05-22T11:00:11.852Z,32.98
2023-05-22T11:02:43.179Z,32.93
2023-05-22T11:05:21.633Z,33.31
2023-05-22T11:07:49.488Z,34.74
2023-05-22T11:10:27.311Z,33.85
2023-05-22T11:13:29.255Z,33.58
2023-05-22T11:15:58.345Z,34.42
2023-05-22T11:18:29.209Z,33.00
2023-05-22T11:21:00.590Z,31.93
2023-05-22T11:23:28.359Z,31.59
2023-05-22T11:25:56.284Z,32.13
2023-05-22T11:28:24.649Z,31.82
2023-05-22T11:30:52.422Z,32.43
2023-05-22T11:33:20.217Z,31.33
2023-05-22T11:35:49.398Z,31.11
2023-05-22T11:38:18.073Z,30.98
2023-05-22T11:40:45.919Z,30.92
2023-05-22T11:43:13.791Z,30.36
2023-05-22T11:45:41.468Z,31.86
2023-05-22T11:48:09.293Z,33.37
2023-05-22T11:50:42.211Z,33.16
2023-05-22T11:53:10.881Z,31.39
2023-05-22T11:55:38.670Z,31.45
2023-05-22T11:58:06.436Z,30.23
2023-05-22T12:00:34.484Z,31.02
2023-05-22T12:03:02.501Z,31.08
2023-05-22T12:05:32.442Z,31.67
2023-05-22T12:08:00.262Z,31.64
2023-05-22T12:10:27.932Z,30.63
2023-05-22T12:12:55.705Z,31.42
2023-05-22T12:15:24.395Z,30.48
2023-05-22T12:17:55.316Z,32.93
2023-05-22T12:20:23.371Z,30.21
2023-05-22T12:22:51.296Z,31.68
2023-05-22T12:25:20.235Z,31.65
2023-05-22T12:27:48.440Z,32.78
2023-05-22T12:30:17.164Z,33.59
2023-05-22T12:32:50.132Z,33.24
2023-05-22T12:35:18.502Z,31.57
2023-05-22T12:37:50.710Z,32.03
2023-05-22T12:40:19.609Z,31.64
2023-05-22T12:42:48.593Z,31.97
2023-05-22T12:45:17.953Z,32.13
2023-05-22T12:47:46.157Z,31.71
2023-05-22T12:50:14.024Z,31.96
2023-05-22T12:52:41.673Z,31.83
2023-05-22T12:55:10.906Z,32.49
2023-05-22T12:57:38.664Z,32.87
2023-05-22T13:00:07.343Z,31.92
2023-05-22T13:02:35.088Z,33.49
2023-05-22T13:05:03.311Z,33.83
2023-05-22T13:07:31.479Z,32.80
2023-05-22T13:09:59.251Z,31.80
2023-05-22T13:12:27.415Z,34.23
2023-05-22T13:14:55.135Z,33.74
2023-05-22T13:17:22.941Z,32.05
2023-05-22T13:19:51.341Z,32.49
2023-05-22T13:22:19.147Z,32.81
2023-05-22T13:24:46.928Z,32.44
2023-05-22T13:27:17.098Z,32.33
2023-05-22T13:29:45.834Z,33.29
2023-05-22T13:32:14.143Z,32.65
2023-05-22T13:34:42.428Z,33.39
2023-05-22T13:37:11.289Z,33.47
2023-05-22T13:39:39.135Z,34.21
2023-05-22T13:42:09.568Z,34.77
2023-05-22T13:44:37.554Z,34.26
2023-05-22T13:47:05.546Z,34.30
2023-05-22T13:49:33.400Z,34.27
2023-05-22T13:52:01.179Z,34.78
2023-05-22T13:54:29.086Z,33.58
2023-05-22T13:56:57.827Z,33.47
2023-05-22T13:59:25.825Z,33.99
2023-05-22T14:01:53.776Z,33.53
2023-05-22T14:04:21.736Z,33.98
2023-05-22T14:06:49.536Z,33.60
2023-05-22T14:09:19.605Z,34.03
2023-05-22T14:11:47.401Z,33.44
2023-05-22T14:14:15.181Z,34.79
2023-05-22T14:16:42.972Z,32.86
2023-05-22T14:19:13.233Z,33.25
2023-05-22T14:21:40.938Z,33.89
2023-05-22T14:24:08.718Z,32.52
2023-05-22T14:26:36.535Z,33.97
2023-05-22T14:29:04.552Z,33.90
2023-05-22T14:31:32.401Z,34.91
2023-05-22T14:34:00.169Z,33.96
2023-05-22T14:36:27.861Z,33.94
2023-05-22T14:38:56.897Z,33.60
2023-05-22T14:41:24.635Z,33.27
2023-05-22T14:43:52.318Z,34.38
2023-05-22T14:46:20.102Z,34.57
2023-05-22T14:48:47.835Z,35.32
2023-05-22T14:51:15.686Z,34.47
2023-05-22T14:53:43.425Z,34.69
2023-05-22T14:56:11.350Z,34.45
2023-05-22T14:58:39.428Z,33.92
2023-05-22T15:01:07.135Z,33.21
2023-05-22T15:03:34.838Z,33.55
2023-05-22T15:06:02.512Z,33.38
2023-05-22T15:08:30.232Z,33.90
2023-05-22T15:10:58.031Z,33.92
2023-05-22T15:13:25.968Z,33.18
2023-05-22T15:15:53.957Z,33.62
2023-05-22T15:18:21.755Z,34.20
2023-05-22T15:20:49.696Z,33.86
2023-05-22T15:23:17.508Z,33.94
2023-05-22T15:25:45.477Z,32.77
2023-05-22T15:28:13.412Z,33.01
2023-05-22T15:30:43.621Z,33.52
2023-05-22T15:33:12.306Z,33.73
2023-05-22T15:35:41.177Z,33.51
2023-05-22T15:38:12.556Z,33.50
2023-05-22T15:40:41.434Z,33.50
2023-05-22T15:43:10.054Z,34.02
2023-05-22T15:45:38.280Z,34.25
2023-05-22T15:48:06.903Z,33.99
2023-05-22T15:50:34.704Z,33.63
2023-05-22T15:53:02.619Z,33.39
2023-05-22T15:55:30.377Z,33.79
2023-05-22T15:57:58.217Z,34.16
2023-05-22T16:00:26.880Z,33.97
2023-05-22T16:02:54.743Z,34.27
2023-05-22T16:05:22.668Z,34.76
2023-05-22T16:07:50.672Z,34.21
2023-05-22T16:10:18.759Z,33.91
2023-05-22T16:12:46.536Z,34.12
2023-05-22T16:15:14.334Z,35.00
2023-05-22T16:17:42.068Z,35.42
2023-05-22T16:20:10.285Z,34.86
2023-05-22T16:22:48.242Z,34.98
2023-05-22T16:25:17.712Z,35.24
2023-05-22T16:27:46.756Z,34.89
2023-05-22T16:30:17.156Z,35.00
2023-05-22T16:32:46.434Z,34.73
2023-05-22T16:35:15.132Z,35.50
2023-05-22T16:37:42.910Z,35.35
2023-05-22T16:40:11.091Z,35.14
2023-05-22T16:42:41.208Z,35.19
2023-05-22T16:45:09.247Z,35.80
2023-05-22T16:47:37.211Z,36.27
2023-05-22T16:50:05.823Z,36.35
2023-05-22T16:52:33.538Z,37.39
2023-05-22T16:55:01.295Z,37.01
2023-05-22T16:57:29.104Z,36.91
2023-05-22T16:59:58.032Z,37.29
2023-05-22T17:02:26.313Z,37.65
2023-05-22T17:04:54.486Z,37.82
2023-05-22T17:07:22.194Z,37.21
2023-05-22T17:09:49.838Z,37.74
2023-05-22T17:12:18.253Z,37.83
2023-05-22T17:14:46.060Z,37.99
2023-05-22T17:17:14.173Z,38.22
2023-05-22T17:19:42.129Z,38.27
2023-05-22T17:22:10.093Z,38.74
2023-05-22T17:24:37.818Z,38.80
2023-05-22T17:27:06.672Z,38.51
2023-05-22T17:29:34.322Z,39.00
2023-05-22T17:32:02.375Z,39.40
2023-05-22T17:34:30.135Z,39.07
2023-05-22T17:36:59.270Z,39.70
2023-05-22T17:39:26.963Z,40.37
2023-05-22T17:41:54.697Z,40.41
2023-05-22T17:44:22.480Z,40.46
2023-05-22T17:46:51.026Z,40.60
2023-05-22T17:49:18.810Z,40.84
2023-05-22T17:51:46.486Z,41.05
2023-05-22T17:54:17.299Z,41.12
2023-05-22T17:56:46.191Z,41.15
2023-05-22T17:59:13.929Z,41.63
2023-05-22T18:01:41.900Z,41.41
2023-05-22T18:04:11.310Z,41.74
2023-05-22T18:06:39.174Z,42.38
2023-05-22T18:09:08.079Z,42.18
2023-05-22T18:11:35.899Z,42.55
2023-05-22T18:14:03.740Z,43.43
2023-05-22T18:16:31.675Z,43.72
2023-05-22T18:18:59.472Z,44.14
2023-05-22T18:21:27.787Z,44.47
2023-05-22T18:23:55.675Z,45.44
2023-05-22T18:26:23.387Z,46.28
2023-05-22T18:28:51.237Z,46.36
2023-05-22T18:31:19.664Z,47.23
2023-05-22T18:33:47.663Z,47.32
2023-05-22T18:36:16.187Z,48.12
2023-05-22T18:38:44.154Z,49.32
2023-05-22T18:41:11.941Z,50.31
2023-05-22T18:43:40.137Z,51.35
2023-05-22T18:46:08.738Z,51.99
2023-05-22T18:48:37.631Z,52.73
2023-05-22T18:51:05.577Z,53.57
2023-05-22T18:53:33.427Z,53.98
2023-05-22T18:56:02.211Z,55.09
2023-05-22T18:58:29.963Z,56.03
2023-05-22T19:00:58.951Z,55.41
2023-05-22T19:03:27.480Z,56.60
2023-05-22T19:05:55.449Z,56.58
2023-05-22T19:08:26.465Z,56.71
2023-05-22T19:10:58.594Z,57.29
2023-05-22T19:13:27.527Z,58.32
2023-05-22T19:15:57.223Z,57.95
2023-05-22T19:18:27.326Z,58.34
2023-05-22T19:20:55.152Z,58.42
2023-05-22T19:23:23.348Z,58.65
2023-05-22T19:25:52.482Z,58.77
2023-05-22T19:28:20.690Z,59.50
2023-05-22T19:30:48.609Z,59.75
2023-05-22T19:33:17.437Z,61.29
2023-05-22T19:35:46.395Z,61.59
2023-05-22T19:38:15.510Z,61.72
2023-05-22T19:40:43.356Z,62.24
2023-05-22T19:43:11.300Z,61.11
2023-05-22T19:45:39.104Z,62.77
2023-05-22T19:48:06.898Z,63.47
2023-05-22T19:50:37.841Z,63.74
2023-05-22T19:53:06.025Z,64.24
2023-05-22T19:55:33.731Z,65.38
2023-05-22T19:58:01.785Z,65.87
2023-05-22T20:00:31.325Z,65.71
2023-05-22T20:03:00.253Z,66.31
2023-05-22T20:05:28.496Z,66.34
2023-05-22T20:07:58.374Z,66.84
2023-05-22T20:10:27.519Z,67.31
2023-05-22T20:12:55.427Z,67.22
2023-05-22T20:15:25.147Z,67.16
2023-05-22T20:17:53.427Z,67.58
2023-05-22T20:20:21.627Z,69.00
2023-05-22T20:22:51.385Z,68.65
2023-05-22T20:25:21.358Z,69.00
2023-05-22T20:27:49.117Z,69.12
2023-05-22T20:30:16.839Z,68.97
2023-05-22T20:32:47.051Z,69.92
2023-05-22T20:35:18.412Z,70.18
2023-05-22T20:37:46.628Z,69.93
2023-05-22T20:40:16.094Z,70.03
2023-05-22T20:42:44.735Z,70.94
2023-05-22T20:45:14.887Z,71.00
2023-05-22T20:47:44.147Z,71.16
2023-05-22T20:50:12.138Z,71.72
2023-05-22T20:52:39.920Z,71.84
2023-05-22T20:55:08.592Z,71.90
2023-05-22T20:57:36.532Z,71.84
2023-05-22T21:00:06.659Z,73.10
2023-05-22T21:02:34.578Z,72.88
2023-05-22T21:05:03.102Z,73.17
2023-05-22T21:07:30.898Z,73.50
2023-05-22T21:09:58.630Z,74.08
2023-05-22T21:12:26.548Z,74.00
2023-05-22T21:14:54.525Z,74.01
2023-05-22T21:17:23.251Z,75.09
2023-05-22T21:19:51.005Z,74.45
2023-05-22T21:22:18.702Z,73.61
2023-05-22T21:24:46.601Z,74.79
2023-05-22T21:27:14.534Z,75.15
2023-05-22T21:29:42.215Z,74.61
2023-05-22T21:32:10.245Z,74.78
2023-05-22T21:34:37.996Z,74.69
2023-05-22T21:37:05.892Z,75.11
2023-05-22T21:39:33.826Z,75.42
2023-05-22T21:42:02.508Z,76.14
2023-05-22T21:44:30.235Z,77.59
2023-05-22T21:49:56.758Z,76.29
2023-05-22T21:52:27.811Z,76.71
2023-05-22T21:54:55.839Z,76.62
2023-05-22T21:57:23.815Z,76.28
2023-05-22T21:59:51.650Z,75.66
2023-05-22T22:02:19.467Z,75.57
2023-05-22T22:04:47.464Z,76.99
2023-05-22T22:07:15.503Z,77.56
2023-05-22T22:09:43.289Z,77.39
2023-05-22T22:12:11.950Z,76.89
2023-05-22T22:14:39.634Z,76.87
2023-05-22T22:17:08.268Z,77.10
2023-05-22T22:19:36.223Z,77.86
2023-05-22T22:22:04.229Z,76.96
2023-05-22T22:24:31.915Z,76.59
2023-05-22T22:26:59.819Z,77.99
2023-05-22T22:29:27.925Z,80.18
2023-05-22T22:31:55.856Z,79.91
2023-05-22T22:34:23.655Z,78.96
2023-05-22T22:36:51.728Z,79.02
2023-05-22T22:39:19.473Z,78.73
2023-05-22T22:41:47.124Z,78.61
2023-05-22T22:44:14.802Z,78.72
2023-05-22T22:46:42.758Z,79.53
2023-05-22T22:49:10.507Z,79.08
2023-05-22T22:51:38.149Z,79.43
2023-05-22T22:54:06.082Z,79.18
2023-05-22T22:56:34.132Z,79.15
2023-05-22T22:59:02.163Z,79.09
2023-05-22T23:01:29.874Z,79.03
2023-05-22T23:03:57.729Z,79.07
2023-05-22T23:06:29.567Z,79.00
2023-05-22T23:08:58.840Z,78.91
2023-05-22T23:11:37.713Z,79.25
2023-05-22T23:14:07.531Z,79.39
2023-05-22T23:16:36.217Z,79.15
2023-05-22T23:19:04.908Z,78.91
2023-05-22T23:21:33.728Z,79.37
2023-05-22T23:24:04.290Z,79.23
2023-05-22T23:26:32.860Z,79.42
2023-05-22T23:29:01.399Z,79.37
2023-05-22T23:31:30.468Z,79.55
2023-05-22T23:33:58.838Z,79.70
2023-05-22T23:36:26.566Z,81.53
2023-05-22T23:38:54.302Z,81.61
2023-05-22T23:41:21.977Z,79.53
2023-05-22T23:43:49.706Z,79.58
2023-05-22T23:46:21.150Z,81.17
2023-05-22T23:48:49.061Z,80.86
2023-05-22T23:51:16.916Z,80.47
2023-05-22T23:53:44.963Z,80.54
2023-05-22T23:56:12.651Z,80.49
2023-05-22T23:58:40.454Z,80.33
